createdAt,value
2022-09-21T00:00:26.635Z,95678.66
2022-09-21T00:03:35.312Z,95683.31
2022-09-21T00:06:43.467Z,95692.09
2022-09-21T00:09:53.019Z,95694.03
2022-09-21T00:13:02.989Z,95698.63
2022-09-21T00:16:11.471Z,95687.59
2022-09-21T00:19:19.983Z,95694.03
2022-09-21T00:55:38.753Z,95702.03
2022-09-21T00:58:54.865Z,95704.38
2022-09-21T01:02:05.262Z,95698.56
2022-09-21T01:05:15.966Z,95698.56
2022-09-21T01:08:27.717Z,95694.56
2022-09-21T01:11:49.382Z,95696.84
2022-09-21T01:15:19.728Z,95697.91
2022-09-21T01:18:37.682Z,95689.22
2022-09-21T01:22:00.688Z,95689.44
2022-09-21T01:25:26.855Z,95689.53
2022-09-21T01:29:16.892Z,95697.19
2022-09-21T01:32:33.525Z,95698.41
2022-09-21T01:35:48.873Z,95694.22
2022-09-21T01:39:14.987Z,95695.91
2022-09-21T01:42:27.543Z,95693.53
2022-09-21T01:45:44.590Z,95691.38
2022-09-21T01:49:03.602Z,95687.53
2022-09-21T01:52:22.074Z,95692.59
2022-09-21T01:55:40.207Z,95689.56
2022-09-21T01:59:02.397Z,95680.97
2022-09-21T02:02:20.257Z,95691.94
2022-09-21T02:05:31.212Z,95688.13
2022-09-21T02:08:40.791Z,95698.19
2022-09-21T02:11:49.012Z,95703.78
2022-09-21T02:14:57.709Z,95705.00
2022-09-21T02:18:18.643Z,95696.59
2022-09-21T02:21:34.189Z,95694.47
2022-09-21T02:24:47.723Z,95693.31
2022-09-21T02:28:03.293Z,95687.00
2022-09-21T02:31:20.090Z,95689.38
2022-09-21T02:34:37.181Z,95689.88
2022-09-21T02:37:56.050Z,95691.06
2022-09-21T02:41:13.868Z,95686.19
2022-09-21T02:44:33.145Z,95694.94
2022-09-21T02:47:49.537Z,95693.97
2022-09-21T02:56:08.400Z,95683.88
2022-09-21T02:59:17.807Z,95688.31
2022-09-21T03:02:36.297Z,95696.84
2022-09-21T03:05:46.502Z,95690.31
2022-09-21T03:08:54.671Z,95699.81
2022-09-21T03:12:05.001Z,95703.22
2022-09-21T03:15:13.104Z,95694.16
2022-09-21T03:18:21.241Z,95696.00
2022-09-21T03:21:29.719Z,95693.97
2022-09-21T03:24:46.969Z,95698.84
2022-09-21T03:27:57.080Z,95703.88
2022-09-21T03:31:06.681Z,95710.47
2022-09-21T03:34:14.916Z,95705.38
2022-09-21T03:37:23.052Z,95714.06
2022-09-21T03:40:31.222Z,95711.22
2022-09-21T03:43:40.784Z,95710.13
2022-09-21T03:46:51.170Z,95701.38
2022-09-21T03:49:59.585Z,95700.03
2022-09-21T03:53:09.476Z,95702.53
2022-09-21T03:56:17.611Z,95696.41
2022-09-21T03:59:27.090Z,95698.94
2022-09-21T04:02:35.704Z,95700.38
2022-09-21T04:05:43.792Z,95698.44
2022-09-21T04:08:53.396Z,95706.75
2022-09-21T04:12:01.739Z,95703.84
2022-09-21T04:15:13.072Z,95709.25
2022-09-21T04:18:21.150Z,95704.13
2022-09-21T04:21:29.957Z,95707.34
2022-09-21T04:24:39.515Z,95711.94
2022-09-21T04:27:48.023Z,95714.00
2022-09-21T04:30:57.481Z,95708.59
2022-09-21T04:34:05.879Z,95714.56
2022-09-21T04:37:13.999Z,95714.00
2022-09-21T04:40:23.300Z,95718.72
2022-09-21T04:43:31.479Z,95713.16
2022-09-21T04:46:42.315Z,95718.16
2022-09-21T04:49:51.655Z,95724.78
2022-09-21T04:53:00.231Z,95727.97
2022-09-21T04:56:10.985Z,95732.25
2022-09-21T04:59:19.167Z,95728.13
2022-09-21T05:02:29.221Z,95733.66
2022-09-21T05:05:37.327Z,95739.19
2022-09-21T05:09:02.949Z,95743.91
2022-09-21T05:12:11.379Z,95754.44
2022-09-21T05:15:20.414Z,95757.91
2022-09-21T05:18:32.041Z,95763.44
2022-09-21T05:21:40.122Z,95759.25
2022-09-21T05:24:48.752Z,95760.25
2022-09-21T05:27:57.099Z,95767.44
2022-09-21T05:31:28.402Z,95761.09
2022-09-21T05:34:53.553Z,95763.59
2022-09-21T05:38:11.323Z,95766.78
2022-09-21T05:41:21.265Z,95764.44
2022-09-21T05:44:30.525Z,95768.75
2022-09-21T05:47:42.542Z,95766.38
2022-09-21T05:51:03.092Z,95762.09
2022-09-21T05:54:22.802Z,95756.66
2022-09-21T05:57:48.081Z,95768.88
2022-09-21T06:01:17.973Z,95768.03
2022-09-21T06:04:26.932Z,95762.91
2022-09-21T06:07:36.408Z,95771.47
2022-09-21T06:10:45.284Z,95769.06
2022-09-21T06:13:53.999Z,95765.44
2022-09-21T06:17:04.022Z,95762.63
2022-09-21T06:20:12.145Z,95767.81
2022-09-21T06:23:21.792Z,95762.56
2022-09-21T06:26:30.270Z,95770.53
2022-09-21T06:29:38.924Z,95773.69
2022-09-21T06:32:46.977Z,95776.44
2022-09-21T06:35:57.170Z,95772.44
2022-09-21T06:39:06.905Z,95778.59
2022-09-21T06:42:15.280Z,95777.88
2022-09-21T06:45:23.501Z,95774.81
2022-09-21T06:48:35.336Z,95773.09
2022-09-21T06:51:44.361Z,95769.66
2022-09-21T06:54:54.034Z,95767.69
2022-09-21T06:59:19.264Z,95773.53
2022-09-21T07:02:28.768Z,95769.84
2022-09-21T07:05:38.288Z,95770.28
2022-09-21T07:12:21.279Z,95765.66
2022-09-21T07:15:31.469Z,95778.06
2022-09-21T07:18:44.144Z,95768.88
2022-09-21T07:21:55.193Z,95779.69
2022-09-21T07:25:06.935Z,95780.84
2022-09-21T07:28:16.638Z,95783.19
2022-09-21T07:31:24.816Z,95780.56
2022-09-21T07:34:37.191Z,95774.53
2022-09-21T07:37:45.378Z,95777.34
2022-09-21T07:40:54.833Z,95781.03
2022-09-21T07:44:07.407Z,95785.09
2022-09-21T07:47:16.920Z,95782.59
2022-09-21T07:50:25.246Z,95780.38
2022-09-21T07:53:34.112Z,95787.91
2022-09-21T07:57:03.666Z,95775.22
2022-09-21T08:00:13.836Z,95782.59
2022-09-21T08:03:22.044Z,95788.44
2022-09-21T08:06:35.189Z,95794.09
2022-09-21T08:09:43.451Z,95784.88
2022-09-21T08:12:51.933Z,95786.19
2022-09-21T08:16:03.735Z,95776.19
2022-09-21T08:19:12.088Z,95784.53
2022-09-21T08:22:20.875Z,95787.91
2022-09-21T08:25:30.327Z,95779.09
2022-09-21T08:28:38.775Z,95779.81
2022-09-21T08:31:48.325Z,95786.91
2022-09-21T08:34:56.615Z,95782.13
2022-09-21T08:38:04.998Z,95782.78
2022-09-21T08:41:19.973Z,95784.31
2022-09-21T08:44:36.991Z,95775.03
2022-09-21T08:47:52.219Z,95784.66
2022-09-21T08:51:08.079Z,95783.78
2022-09-21T08:54:26.369Z,95785.66
2022-09-21T08:57:35.664Z,95781.88
2022-09-21T09:00:44.589Z,95785.84
2022-09-21T09:04:24.100Z,95775.72
2022-09-21T09:07:59.530Z,95784.59
2022-09-21T09:11:24.969Z,95783.84
2022-09-21T09:15:07.331Z,95776.03
2022-09-21T09:18:29.326Z,95776.16
2022-09-21T09:21:42.788Z,95776.88
2022-09-21T09:24:54.599Z,95777.22
2022-09-21T09:28:28.846Z,95774.31
2022-09-21T09:31:39.342Z,95775.25
2022-09-21T09:34:58.490Z,95785.84
2022-09-21T09:38:21.268Z,95771.97
2022-09-21T09:41:56.090Z,95767.06
2022-09-21T09:45:54.618Z,95761.66
2022-09-21T09:49:21.373Z,95752.94
2022-09-21T09:52:30.130Z,95755.97
2022-09-21T09:55:43.733Z,95761.66
2022-09-21T09:58:57.674Z,95760.59
2022-09-21T10:02:19.778Z,95759.50
2022-09-21T10:05:35.680Z,95748.97
2022-09-21T10:08:47.270Z,95739.03
2022-09-21T10:12:02.070Z,95741.56
2022-09-21T10:15:13.344Z,95739.72
2022-09-21T10:18:26.283Z,95734.88
2022-09-21T10:21:38.506Z,95742.31
2022-09-21T10:24:52.370Z,95738.16
2022-09-21T10:28:03.691Z,95735.22
2022-09-21T10:31:24.138Z,95737.56
2022-09-21T10:34:35.132Z,95734.94
2022-09-21T10:37:45.551Z,95728.56
2022-09-21T10:40:54.928Z,95727.44
2022-09-21T10:44:06.170Z,95722.03
2022-09-21T10:47:26.663Z,95721.41
2022-09-21T10:50:38.693Z,95714.56
2022-09-21T10:53:53.795Z,95709.31
2022-09-21T10:57:08.675Z,95716.97
2022-09-21T11:00:39.334Z,95716.13
2022-09-21T11:03:58.885Z,95706.28
2022-09-21T11:07:20.324Z,95713.69
2022-09-21T11:10:39.469Z,95711.84
2022-09-21T11:14:01.054Z,95713.88
2022-09-21T11:17:18.521Z,95697.78
2022-09-21T11:20:37.887Z,95696.66
2022-09-21T11:23:58.632Z,95698.25
2022-09-21T11:27:16.742Z,95700.50
2022-09-21T11:30:33.436Z,95696.66
2022-09-21T11:34:05.479Z,95692.13
2022-09-21T11:37:29.988Z,95694.72
2022-09-21T11:41:15.000Z,95688.91
2022-09-21T11:44:42.294Z,95678.59
2022-09-21T11:48:12.274Z,95680.00
2022-09-21T11:51:45.868Z,95675.84
2022-09-21T11:55:24.200Z,95680.22
2022-09-21T11:58:45.394Z,95664.72
2022-09-21T12:02:23.670Z,95673.00
2022-09-21T12:05:40.287Z,95656.81
2022-09-21T12:09:28.462Z,95652.47
2022-09-21T12:12:48.131Z,95658.22
2022-09-21T12:16:08.663Z,95651.97
2022-09-21T12:19:33.062Z,95653.06
2022-09-21T12:22:46.555Z,95655.34
2022-09-21T12:26:00.005Z,95658.25
2022-09-21T12:29:20.029Z,95648.75
2022-09-21T12:32:50.109Z,95645.47
2022-09-21T12:36:08.649Z,95647.94
2022-09-21T12:39:24.451Z,95649.59
2022-09-21T12:42:42.921Z,95645.47
2022-09-21T12:46:00.178Z,95643.81
2022-09-21T12:49:19.269Z,95645.06
2022-09-21T12:52:29.324Z,95641.75
2022-09-21T12:55:50.019Z,95640.50
2022-09-21T12:59:25.569Z,95636.38
2022-09-21T13:02:41.856Z,95634.66
2022-09-21T13:06:22.726Z,95639.13
2022-09-21T13:09:33.422Z,95640.28
2022-09-21T13:12:46.851Z,95634.13
2022-09-21T13:15:59.197Z,95633.72
2022-09-21T13:19:22.432Z,95632.03
2022-09-21T13:22:35.388Z,95638.03
2022-09-21T13:25:49.486Z,95625.66
2022-09-21T13:29:32.936Z,95628.13
2022-09-21T13:32:54.735Z,95631.19
2022-09-21T13:36:12.460Z,95626.25
2022-09-21T13:39:21.359Z,95617.75
2022-09-21T13:42:48.818Z,95611.56
2022-09-21T13:45:59.468Z,95612.22
2022-09-21T13:49:26.435Z,95603.31
2022-09-21T13:52:48.154Z,95610.31
2022-09-21T13:56:02.679Z,95605.63
2022-09-21T13:59:26.105Z,95610.34
2022-09-21T14:02:38.167Z,95606.25
2022-09-21T14:05:51.836Z,95601.38
2022-09-21T14:09:06.102Z,95605.50
2022-09-21T14:12:24.083Z,95597.66
2022-09-21T14:15:39.734Z,95589.84
2022-09-21T14:18:47.940Z,95600.34
2022-09-21T14:22:43.581Z,95602.00
2022-09-21T14:25:54.467Z,95590.03
2022-09-21T14:29:16.887Z,95601.38
2022-09-21T14:32:29.357Z,95614.56
2022-09-21T14:35:42.276Z,95601.78
2022-09-21T14:39:00.380Z,95600.16
2022-09-21T14:42:15.721Z,95594.78
2022-09-21T14:45:33.704Z,95596.22
2022-09-21T14:49:00.127Z,95587.38
2022-09-21T14:52:32.064Z,95601.56
2022-09-21T14:56:10.074Z,95589.44
2022-09-21T14:59:42.256Z,95591.50
2022-09-21T15:03:10.813Z,95592.53
2022-09-21T15:06:48.327Z,95588.19
2022-09-21T15:10:38.367Z,95589.84
2022-09-21T15:14:11.160Z,95589.03
2022-09-21T15:17:29.825Z,95584.47
2022-09-21T15:20:38.650Z,95576.66
2022-09-21T15:23:47.001Z,95577.50
2022-09-21T15:27:05.349Z,95579.34
2022-09-21T15:30:24.746Z,95580.19
2022-09-21T15:33:37.446Z,95574.22
2022-09-21T15:36:51.753Z,95579.97
2022-09-21T15:40:07.571Z,95582.00
2022-09-21T15:43:21.104Z,95581.59
2022-09-21T15:46:31.059Z,95574.56
2022-09-21T15:49:43.803Z,95580.75
2022-09-21T15:52:57.214Z,95577.69
2022-09-21T15:56:06.547Z,95571.69
2022-09-21T15:59:20.766Z,95569.41
2022-09-21T16:02:40.284Z,95579.91
2022-09-21T16:05:52.203Z,95587.31
2022-09-21T16:09:00.412Z,95584.00
2022-09-21T16:12:43.581Z,95589.91
2022-09-21T16:16:02.049Z,95598.72
2022-09-21T16:19:11.630Z,95601.13
2022-09-21T16:22:25.567Z,95601.06
2022-09-21T16:25:37.649Z,95602.25
2022-09-21T16:28:46.052Z,95614.28
2022-09-21T16:32:28.473Z,95615.44
2022-09-21T16:35:41.541Z,95613.66
2022-09-21T16:38:50.503Z,95611.38
2022-09-21T16:42:04.009Z,95623.22
2022-09-21T16:45:28.451Z,95616.94
2022-09-21T16:48:36.939Z,95618.63
2022-09-21T16:51:48.937Z,95617.69
2022-09-21T16:54:58.992Z,95607.97
2022-09-21T16:58:07.210Z,95618.66
2022-09-21T17:01:20.910Z,95619.59
2022-09-21T17:04:32.033Z,95620.38
2022-09-21T17:07:41.888Z,95622.06
2022-09-21T17:10:50.052Z,95621.19
2022-09-21T17:14:01.327Z,95624.69
2022-09-21T17:17:18.207Z,95623.59
2022-09-21T17:20:34.528Z,95616.91
2022-09-21T17:23:45.402Z,95630.41
2022-09-21T17:26:53.973Z,95619.69
2022-09-21T17:30:03.485Z,95613.81
2022-09-21T17:33:12.169Z,95622.03
2022-09-21T17:36:20.364Z,95618.97
2022-09-21T17:39:30.023Z,95624.44
2022-09-21T17:42:43.075Z,95625.25
2022-09-21T17:46:03.585Z,95628.81
2022-09-21T17:49:13.020Z,95632.72
2022-09-21T17:52:41.142Z,95632.66
2022-09-21T17:55:57.664Z,95637.72
2022-09-21T17:59:08.059Z,95638.78
2022-09-21T18:02:24.116Z,95638.53
2022-09-21T18:05:32.704Z,95642.22
2022-09-21T18:08:41.972Z,95644.44
2022-09-21T18:12:44.165Z,95651.28
2022-09-21T18:16:16.804Z,95650.31
2022-09-21T18:19:45.617Z,95645.03
2022-09-21T18:23:10.728Z,95651.22
2022-09-21T18:26:20.751Z,95653.72
2022-09-21T18:29:41.757Z,95655.03
2022-09-21T18:33:13.476Z,95657.03
2022-09-21T18:36:31.501Z,95661.03
2022-09-21T18:39:54.019Z,95650.44
2022-09-21T18:43:22.909Z,95658.06
2022-09-21T18:46:50.414Z,95659.72
2022-09-21T18:50:08.698Z,95662.88
2022-09-21T18:53:26.108Z,95665.84
2022-09-21T18:56:37.531Z,95660.72
2022-09-21T18:59:46.959Z,95665.69
2022-09-21T19:03:15.714Z,95666.50
2022-09-21T19:06:40.342Z,95670.81
2022-09-21T19:10:05.265Z,95669.16
2022-09-21T19:13:43.042Z,95663.69
2022-09-21T19:17:10.456Z,95660.69
2022-09-21T19:20:50.790Z,95662.00
2022-09-21T19:24:11.853Z,95653.75
2022-09-21T19:27:29.124Z,95653.06
2022-09-21T19:30:39.797Z,95653.72
2022-09-21T19:33:51.032Z,95659.66
2022-09-21T19:37:07.025Z,95654.31
2022-09-21T19:40:22.288Z,95656.31
2022-09-21T19:43:42.885Z,95662.75
2022-09-21T19:47:07.415Z,95664.03
2022-09-21T19:50:23.269Z,95666.19
2022-09-21T19:53:51.553Z,95663.44
2022-09-21T19:57:18.358Z,95670.09
2022-09-21T20:00:27.525Z,95663.63
2022-09-21T20:03:44.628Z,95670.06
2022-09-21T20:07:03.225Z,95660.16
2022-09-21T20:10:38.478Z,95666.75
2022-09-21T20:14:09.106Z,95665.03
2022-09-21T20:17:26.297Z,95664.34
2022-09-21T20:20:35.014Z,95661.31
2022-09-21T20:23:46.791Z,95665.44
2022-09-21T20:27:00.777Z,95653.88
2022-09-21T20:30:13.217Z,95662.13
2022-09-21T20:33:24.150Z,95654.69
2022-09-21T20:36:33.223Z,95655.66
2022-09-21T20:39:42.278Z,95651.69
2022-09-21T20:42:52.406Z,95652.66
2022-09-21T20:46:00.654Z,95659.88
2022-09-21T20:49:09.186Z,95650.94
2022-09-21T20:52:18.372Z,95657.47
2022-09-21T20:55:29.339Z,95662.75
2022-09-21T20:58:38.781Z,95660.94
2022-09-21T21:01:49.882Z,95670.03
2022-09-21T21:04:58.026Z,95665.25
2022-09-21T21:08:07.661Z,95667.59
2022-09-21T21:11:16.144Z,95674.25
2022-09-21T21:14:26.389Z,95674.72
2022-09-21T21:17:35.879Z,95662.66
2022-09-21T21:20:44.440Z,95667.47
2022-09-21T21:24:10.694Z,95672.09
2022-09-21T21:27:21.647Z,95665.28
2022-09-21T21:30:32.086Z,95664.69
2022-09-21T21:33:40.274Z,95661.44
2022-09-21T21:36:49.055Z,95659.25
2022-09-21T21:39:58.742Z,95650.50
2022-09-21T21:43:07.067Z,95649.53
2022-09-21T21:46:16.595Z,95651.19
2022-09-21T21:49:25.847Z,95653.47
2022-09-21T21:52:34.114Z,95649.16
2022-09-21T21:55:42.491Z,95646.44
2022-09-21T21:58:54.326Z,95642.97
2022-09-21T22:02:04.353Z,95644.56
2022-09-21T22:05:12.767Z,95651.59
2022-09-21T22:08:21.094Z,95656.16
2022-09-21T22:11:30.981Z,95656.22
2022-09-21T22:14:39.608Z,95653.59
2022-09-21T22:17:50.794Z,95655.44
2022-09-21T22:21:04.098Z,95654.72
2022-09-21T22:24:12.968Z,95658.63
2022-09-21T22:27:21.925Z,95656.44
2022-09-21T22:30:30.991Z,95652.53
2022-09-21T22:33:41.422Z,95650.88
2022-09-21T22:36:50.673Z,95657.44
2022-09-21T22:39:59.361Z,95654.53
2022-09-21T22:43:07.768Z,95647.91
2022-09-21T22:46:17.625Z,95641.41
2022-09-21T22:49:27.124Z,95644.06
2022-09-21T22:52:35.919Z,95645.59
2022-09-21T22:55:44.356Z,95640.41
2022-09-21T22:58:57.684Z,95643.56
2022-09-21T23:02:08.512Z,95634.66
2022-09-21T23:05:18.440Z,95636.06
2022-09-21T23:08:27.896Z,95629.41
2022-09-21T23:11:39.958Z,95630.03
2022-09-21T23:14:48.618Z,95635.22
2022-09-21T23:17:57.263Z,95631.00
2022-09-21T23:21:11.656Z,95629.06
2022-09-21T23:24:21.208Z,95625.03
2022-09-21T23:27:30.062Z,95627.84
2022-09-21T23:30:38.863Z,95623.56
2022-09-21T23:33:49.901Z,95624.28
2022-09-21T23:36:59.701Z,95612.34
2022-09-21T23:40:11.010Z,95620.84
2022-09-21T23:43:19.574Z,95618.25
2022-09-21T23:46:32.843Z,95615.88
2022-09-21T23:49:41.541Z,95608.69
2022-09-21T23:52:51.850Z,95611.91
2022-09-21T23:56:01.620Z,95615.00
2022-09-21T23:59:12.454Z,95605.81
